sensor_id;sensor_type;location;lat;lon;timestamp;pressure;altitude;pressure_sealevel;temperature;humidity
21826;BME280;11075;47.944;11.776;2022-07-17T00:00:34;95429.94;;;19.19;23.34
21826;BME280;11075;47.944;11.776;2022-07-17T00:03:01;95438.31;;;18.96;23.13
21826;BME280;11075;47.944;11.776;2022-07-17T00:05:27;95438.19;;;18.85;23.84
21826;BME280;11075;47.944;11.776;2022-07-17T00:07:54;95430.47;;;18.91;23.57
21826;BME280;11075;47.944;11.776;2022-07-17T00:10:21;95440.47;;;18.80;23.57
21826;BME280;11075;47.944;11.776;2022-07-17T00:12:48;95429.56;;;18.80;23.78
21826;BME280;11075;47.944;11.776;2022-07-17T00:15:15;95427.88;;;18.38;24.66
21826;BME280;11075;47.944;11.776;2022-07-17T00:17:42;95416.47;;;17.27;24.91
21826;BME280;11075;47.944;11.776;2022-07-17T00:20:09;95416.44;;;17.49;25.12
21826;BME280;11075;47.944;11.776;2022-07-17T00:22:36;95399.88;;;17.85;25.00
21826;BME280;11075;47.944;11.776;2022-07-17T00:25:04;95415.03;;;17.59;25.02
21826;BME280;11075;47.944;11.776;2022-07-17T00:27:32;95401.88;;;16.73;26.33
21826;BME280;11075;47.944;11.776;2022-07-17T00:29:59;95416.03;;;17.47;25.19
21826;BME280;11075;47.944;11.776;2022-07-17T00:32:27;95416.38;;;17.69;25.09
21826;BME280;11075;47.944;11.776;2022-07-17T00:34:54;95425.50;;;18.06;24.42
21826;BME280;11075;47.944;11.776;2022-07-17T00:37:21;95411.47;;;17.09;25.90
21826;BME280;11075;47.944;11.776;2022-07-17T00:39:48;95414.66;;;16.69;26.15
21826;BME280;11075;47.944;11.776;2022-07-17T00:42:18;95420.31;;;17.48;24.64
21826;BME280;11075;47.944;11.776;2022-07-17T00:44:45;95414.34;;;17.39;25.13
21826;BME280;11075;47.944;11.776;2022-07-17T00:49:41;95440.69;;;18.07;24.38
21826;BME280;11075;47.944;11.776;2022-07-17T00:52:09;95426.13;;;17.96;24.28
21826;BME280;11075;47.944;11.776;2022-07-17T00:54:37;95431.91;;;17.91;24.47
21826;BME280;11075;47.944;11.776;2022-07-17T00:57:10;95405.31;;;16.51;26.48
21826;BME280;11075;47.944;11.776;2022-07-17T00:59:38;95398.47;;;16.99;25.76
21826;BME280;11075;47.944;11.776;2022-07-17T01:02:12;95404.66;;;17.19;25.53
21826;BME280;11075;47.944;11.776;2022-07-17T01:04:40;95434.00;;;17.52;24.29
21826;BME280;11075;47.944;11.776;2022-07-17T01:07:07;95412.25;;;17.10;25.78
21826;BME280;11075;47.944;11.776;2022-07-17T01:09:34;95412.38;;;17.63;24.70
21826;BME280;11075;47.944;11.776;2022-07-17T01:12:03;95418.09;;;17.31;25.06
21826;BME280;11075;47.944;11.776;2022-07-17T01:14:32;95422.59;;;17.20;25.12
21826;BME280;11075;47.944;11.776;2022-07-17T01:16:59;95427.09;;;17.12;25.05
21826;BME280;11075;47.944;11.776;2022-07-17T01:19:26;95430.31;;;17.41;25.18
21826;BME280;11075;47.944;11.776;2022-07-17T01:21:53;95432.31;;;17.21;25.56
21826;BME280;11075;47.944;11.776;2022-07-17T01:24:20;95431.22;;;17.48;24.58
21826;BME280;11075;47.944;11.776;2022-07-17T01:26:48;95419.91;;;17.46;25.13
21826;BME280;11075;47.944;11.776;2022-07-17T01:29:16;95420.00;;;16.66;25.38
21826;BME280;11075;47.944;11.776;2022-07-17T01:31:43;95413.00;;;16.65;25.84
21826;BME280;11075;47.944;11.776;2022-07-17T01:34:12;95409.75;;;16.20;26.25
21826;BME280;11075;47.944;11.776;2022-07-17T01:36:40;95420.34;;;16.45;25.96
21826;BME280;11075;47.944;11.776;2022-07-17T01:39:08;95414.25;;;16.90;25.93
21826;BME280;11075;47.944;11.776;2022-07-17T01:41:35;95414.50;;;16.43;26.37
21826;BME280;11075;47.944;11.776;2022-07-17T01:44:03;95420.09;;;16.69;25.12
21826;BME280;11075;47.944;11.776;2022-07-17T01:46:30;95440.81;;;17.65;24.58
21826;BME280;11075;47.944;11.776;2022-07-17T01:48:58;95432.13;;;17.56;24.95
21826;BME280;11075;47.944;11.776;2022-07-17T01:51:27;95429.06;;;17.35;25.33
21826;BME280;11075;47.944;11.776;2022-07-17T01:53:58;95414.19;;;16.48;25.94
21826;BME280;11075;47.944;11.776;2022-07-17T01:56:25;95428.97;;;17.08;25.05
21826;BME280;11075;47.944;11.776;2022-07-17T01:58:52;95434.50;;;16.93;25.19
21826;BME280;11075;47.944;11.776;2022-07-17T02:01:19;95444.59;;;17.57;25.21
21826;BME280;11075;47.944;11.776;2022-07-17T02:03:46;95448.47;;;17.33;24.51
21826;BME280;11075;47.944;11.776;2022-07-17T02:06:13;95443.28;;;17.47;24.64
21826;BME280;11075;47.944;11.776;2022-07-17T02:08:40;95453.44;;;17.51;24.80
21826;BME280;11075;47.944;11.776;2022-07-17T02:11:07;95453.28;;;17.89;24.06
21826;BME280;11075;47.944;11.776;2022-07-17T02:13:34;95443.34;;;16.67;24.90
21826;BME280;11075;47.944;11.776;2022-07-17T02:16:01;95459.91;;;17.42;24.27
21826;BME280;11075;47.944;11.776;2022-07-17T02:18:28;95445.69;;;17.53;24.72
21826;BME280;11075;47.944;11.776;2022-07-17T02:20:55;95457.50;;;17.37;24.13
21826;BME280;11075;47.944;11.776;2022-07-17T02:23:21;95438.38;;;16.53;25.77
21826;BME280;11075;47.944;11.776;2022-07-17T02:25:49;95454.78;;;17.37;24.62
21826;BME280;11075;47.944;11.776;2022-07-17T02:28:15;95439.31;;;16.80;25.57
21826;BME280;11075;47.944;11.776;2022-07-17T02:30:42;95435.44;;;17.00;25.45
21826;BME280;11075;47.944;11.776;2022-07-17T02:33:09;95454.72;;;17.34;24.19
21826;BME280;11075;47.944;11.776;2022-07-17T02:35:36;95441.34;;;16.83;25.41
21826;BME280;11075;47.944;11.776;2022-07-17T02:38:03;95443.09;;;16.95;25.13
21826;BME280;11075;47.944;11.776;2022-07-17T02:40:30;95433.38;;;16.55;25.43
21826;BME280;11075;47.944;11.776;2022-07-17T02:42:58;95453.69;;;17.19;24.13
21826;BME280;11075;47.944;11.776;2022-07-17T02:45:25;95431.59;;;16.24;26.03
21826;BME280;11075;47.944;11.776;2022-07-17T02:47:52;95457.91;;;17.39;24.43
21826;BME280;11075;47.944;11.776;2022-07-17T02:50:21;95443.25;;;16.82;25.40
21826;BME280;11075;47.944;11.776;2022-07-17T02:52:48;95456.47;;;17.03;24.66
21826;BME280;11075;47.944;11.776;2022-07-17T02:55:17;95453.03;;;17.06;24.46
21826;BME280;11075;47.944;11.776;2022-07-17T02:57:44;95453.56;;;16.93;25.15
21826;BME280;11075;47.944;11.776;2022-07-17T03:00:16;95442.69;;;16.00;26.25
21826;BME280;11075;47.944;11.776;2022-07-17T03:02:44;95435.28;;;15.81;26.21
21826;BME280;11075;47.944;11.776;2022-07-17T03:05:13;95469.66;;;17.43;24.13
21826;BME280;11075;47.944;11.776;2022-07-17T03:07:42;95452.00;;;16.72;25.43
21826;BME280;11075;47.944;11.776;2022-07-17T03:10:09;95453.25;;;16.98;24.99
21826;BME280;11075;47.944;11.776;2022-07-17T03:12:36;95458.69;;;17.17;24.66
21826;BME280;11075;47.944;11.776;2022-07-17T03:15:04;95462.84;;;17.11;24.09
21826;BME280;11075;47.944;11.776;2022-07-17T03:17:32;95440.19;;;16.45;25.36
21826;BME280;11075;47.944;11.776;2022-07-17T03:19:59;95440.91;;;15.72;25.61
21826;BME280;11075;47.944;11.776;2022-07-17T03:22:26;95452.94;;;16.80;25.18
21826;BME280;11075;47.944;11.776;2022-07-17T03:24:53;95457.16;;;16.77;24.92
21826;BME280;11075;47.944;11.776;2022-07-17T03:27:20;95428.28;;;15.64;26.31
21826;BME280;11075;47.944;11.776;2022-07-17T03:29:47;95451.19;;;15.98;25.46
21826;BME280;11075;47.944;11.776;2022-07-17T03:32:14;95456.84;;;16.25;25.09
21826;BME280;11075;47.944;11.776;2022-07-17T03:34:41;95469.97;;;16.77;24.69
21826;BME280;11075;47.944;11.776;2022-07-17T03:37:08;95466.16;;;17.01;24.08
21826;BME280;11075;47.944;11.776;2022-07-17T03:39:35;95458.31;;;16.76;24.83
21826;BME280;11075;47.944;11.776;2022-07-17T03:42:02;95457.84;;;16.55;24.53
21826;BME280;11075;47.944;11.776;2022-07-17T03:44:29;95431.00;;;15.17;26.80
21826;BME280;11075;47.944;11.776;2022-07-17T03:46:56;95443.91;;;15.51;25.98
21826;BME280;11075;47.944;11.776;2022-07-17T03:49:23;95464.28;;;16.28;24.67
21826;BME280;11075;47.944;11.776;2022-07-17T03:51:51;95460.13;;;15.99;25.04
21826;BME280;11075;47.944;11.776;2022-07-17T03:54:18;95468.53;;;16.83;24.77
21826;BME280;11075;47.944;11.776;2022-07-17T03:56:45;95475.81;;;16.98;24.48
21826;BME280;11075;47.944;11.776;2022-07-17T03:59:11;95482.84;;;16.99;23.94
21826;BME280;11075;47.944;11.776;2022-07-17T04:01:38;95480.63;;;17.47;23.76
21826;BME280;11075;47.944;11.776;2022-07-17T04:04:05;95473.91;;;16.99;24.53
21826;BME280;11075;47.944;11.776;2022-07-17T04:06:32;95476.69;;;17.22;24.29
21826;BME280;11075;47.944;11.776;2022-07-17T04:08:59;95477.84;;;17.43;23.84
21826;BME280;11075;47.944;11.776;2022-07-17T04:11:26;95450.19;;;16.22;25.75
21826;BME280;11075;47.944;11.776;2022-07-17T04:13:53;95468.09;;;17.42;24.11
21826;BME280;11075;47.944;11.776;2022-07-17T04:16:20;95477.88;;;17.24;24.21
21826;BME280;11075;47.944;11.776;2022-07-17T04:18:47;95468.88;;;17.43;24.11
21826;BME280;11075;47.944;11.776;2022-07-17T04:21:14;95469.16;;;17.15;25.04
21826;BME280;11075;47.944;11.776;2022-07-17T04:23:41;95477.28;;;17.34;24.64
21826;BME280;11075;47.944;11.776;2022-07-17T04:26:08;95464.22;;;17.21;24.71
21826;BME280;11075;47.944;11.776;2022-07-17T04:28:38;95481.22;;;17.83;23.80
21826;BME280;11075;47.944;11.776;2022-07-17T04:31:05;95473.59;;;17.69;24.42
21826;BME280;11075;47.944;11.776;2022-07-17T04:33:32;95455.00;;;16.87;25.29
21826;BME280;11075;47.944;11.776;2022-07-17T04:35:59;95452.56;;;16.81;25.94
21826;BME280;11075;47.944;11.776;2022-07-17T04:38:26;95468.97;;;17.96;24.92
21826;BME280;11075;47.944;11.776;2022-07-17T04:40:53;95462.41;;;17.74;25.14
21826;BME280;11075;47.944;11.776;2022-07-17T04:43:20;95470.78;;;17.88;25.10
21826;BME280;11075;47.944;11.776;2022-07-17T04:45:46;95490.03;;;18.82;24.06
21826;BME280;11075;47.944;11.776;2022-07-17T04:48:14;95492.91;;;18.96;23.96
21826;BME280;11075;47.944;11.776;2022-07-17T04:50:40;95496.19;;;19.46;23.56
21826;BME280;11075;47.944;11.776;2022-07-17T04:53:07;95485.25;;;18.45;24.68
21826;BME280;11075;47.944;11.776;2022-07-17T04:55:34;95448.41;;;17.75;26.24
21826;BME280;11075;47.944;11.776;2022-07-17T04:58:01;95471.75;;;18.86;24.54
21826;BME280;11075;47.944;11.776;2022-07-17T05:00:28;95453.72;;;18.21;25.36
21826;BME280;11075;47.944;11.776;2022-07-17T05:02:55;95460.78;;;17.96;25.82
21826;BME280;11075;47.944;11.776;2022-07-17T05:05:22;95445.84;;;17.86;26.51
21826;BME280;11075;47.944;11.776;2022-07-17T05:07:49;95451.56;;;18.30;26.15
21826;BME280;11075;47.944;11.776;2022-07-17T05:10:16;95466.03;;;18.68;25.21
21826;BME280;11075;47.944;11.776;2022-07-17T05:12:43;95486.78;;;19.84;23.83
21826;BME280;11075;47.944;11.776;2022-07-17T05:15:10;95447.09;;;17.92;26.15
21826;BME280;11075;47.944;11.776;2022-07-17T05:17:37;95480.88;;;20.37;24.12
21826;BME280;11075;47.944;11.776;2022-07-17T05:20:06;95495.84;;;19.98;23.82
21826;BME280;11075;47.944;11.776;2022-07-17T05:22:33;95462.09;;;19.32;25.03
21826;BME280;11075;47.944;11.776;2022-07-17T05:25:00;95480.66;;;20.05;24.05
21826;BME280;11075;47.944;11.776;2022-07-17T05:27:27;95488.09;;;20.77;24.07
21826;BME280;11075;47.944;11.776;2022-07-17T05:29:54;95471.91;;;20.36;24.51
21826;BME280;11075;47.944;11.776;2022-07-17T05:32:21;95487.16;;;21.35;23.58
21826;BME280;11075;47.944;11.776;2022-07-17T05:34:48;95468.84;;;20.52;24.10
21826;BME280;11075;47.944;11.776;2022-07-17T05:37:15;95472.53;;;20.84;24.67
21826;BME280;11075;47.944;11.776;2022-07-17T05:39:41;95469.59;;;20.49;24.48
21826;BME280;11075;47.944;11.776;2022-07-17T05:42:09;95469.41;;;20.93;24.63
21826;BME280;11075;47.944;11.776;2022-07-17T05:44:35;95461.56;;;20.12;25.22
21826;BME280;11075;47.944;11.776;2022-07-17T05:47:02;95463.41;;;20.59;25.06
21826;BME280;11075;47.944;11.776;2022-07-17T05:49:29;95452.66;;;18.89;26.27
21826;BME280;11075;47.944;11.776;2022-07-17T05:51:56;95462.41;;;21.06;25.15
21826;BME280;11075;47.944;11.776;2022-07-17T05:54:23;95502.75;;;22.69;23.33
21826;BME280;11075;47.944;11.776;2022-07-17T05:56:50;95481.56;;;22.70;23.41
21826;BME280;11075;47.944;11.776;2022-07-17T05:59:16;95465.81;;;20.78;25.14
21826;BME280;11075;47.944;11.776;2022-07-17T06:01:43;95467.94;;;21.27;24.73
21826;BME280;11075;47.944;11.776;2022-07-17T06:04:10;95456.47;;;20.07;26.10
21826;BME280;11075;47.944;11.776;2022-07-17T06:06:37;95459.69;;;21.10;25.72
21826;BME280;11075;47.944;11.776;2022-07-17T06:09:04;95498.03;;;22.80;23.51
21826;BME280;11075;47.944;11.776;2022-07-17T06:11:31;95503.00;;;23.76;22.62
21826;BME280;11075;47.944;11.776;2022-07-17T06:14:03;95506.19;;;22.95;22.91
21826;BME280;11075;47.944;11.776;2022-07-17T06:16:30;95551.44;;;24.56;20.17
21826;BME280;11075;47.944;11.776;2022-07-17T06:18:57;95519.88;;;23.09;21.99
21826;BME280;11075;47.944;11.776;2022-07-17T06:21:24;95546.81;;;24.46;20.22
21826;BME280;11075;47.944;11.776;2022-07-17T06:23:51;95528.56;;;23.73;21.45
21826;BME280;11075;47.944;11.776;2022-07-17T06:26:18;95559.53;;;24.33;19.47
21826;BME280;11075;47.944;11.776;2022-07-17T06:28:45;95505.53;;;22.55;22.34
21826;BME280;11075;47.944;11.776;2022-07-17T06:31:12;95503.22;;;22.46;22.30
21826;BME280;11075;47.944;11.776;2022-07-17T06:33:39;95561.97;;;24.68;19.27
21826;BME280;11075;47.944;11.776;2022-07-17T06:36:06;95546.84;;;25.48;19.23
21826;BME280;11075;47.944;11.776;2022-07-17T06:38:33;95523.13;;;23.59;21.45
21826;BME280;11075;47.944;11.776;2022-07-17T06:41:01;95537.72;;;26.28;19.70
21826;BME280;11075;47.944;11.776;2022-07-17T06:43:28;95531.78;;;24.17;20.42
21826;BME280;11075;47.944;11.776;2022-07-17T06:45:55;95543.78;;;23.89;19.82
21826;BME280;11075;47.944;11.776;2022-07-17T06:48:23;95517.03;;;24.75;20.68
21826;BME280;11075;47.944;11.776;2022-07-17T06:50:50;95569.00;;;24.73;18.48
21826;BME280;11075;47.944;11.776;2022-07-17T06:53:17;95549.13;;;23.51;20.26
21826;BME280;11075;47.944;11.776;2022-07-17T06:55:44;95553.00;;;24.57;19.33
21826;BME280;11075;47.944;11.776;2022-07-17T06:58:11;95565.69;;;25.53;18.25
21826;BME280;11075;47.944;11.776;2022-07-17T07:00:39;95560.16;;;24.51;19.66
21826;BME280;11075;47.944;11.776;2022-07-17T07:03:06;95605.84;;;26.39;16.47
21826;BME280;11075;47.944;11.776;2022-07-17T07:05:33;95577.16;;;25.79;18.17
21826;BME280;11075;47.944;11.776;2022-07-17T07:08:00;95577.44;;;24.93;17.81
21826;BME280;11075;47.944;11.776;2022-07-17T07:10:27;95565.78;;;24.37;19.01
21826;BME280;11075;47.944;11.776;2022-07-17T07:12:55;95577.34;;;26.18;17.55
21826;BME280;11075;47.944;11.776;2022-07-17T07:15:22;95561.78;;;23.97;19.37
21826;BME280;11075;47.944;11.776;2022-07-17T07:17:50;95580.16;;;24.96;17.65
21826;BME280;11075;47.944;11.776;2022-07-17T07:20:17;95603.22;;;25.44;16.82
21826;BME280;11075;47.944;11.776;2022-07-17T07:22:44;95578.44;;;26.24;17.13
21826;BME280;11075;47.944;11.776;2022-07-17T07:25:11;95562.97;;;24.85;18.41
21826;BME280;11075;47.944;11.776;2022-07-17T07:27:38;95569.13;;;26.15;17.99
21826;BME280;11075;47.944;11.776;2022-07-17T07:30:05;95608.47;;;27.52;16.74
21826;BME280;11075;47.944;11.776;2022-07-17T07:32:38;95604.09;;;28.23;15.98
21826;BME280;11075;47.944;11.776;2022-07-17T07:35:06;95601.84;;;26.63;16.14
21826;BME280;11075;47.944;11.776;2022-07-17T07:37:33;95585.19;;;26.90;17.60
21826;BME280;11075;47.944;11.776;2022-07-17T07:40:00;95578.19;;;25.31;18.42
21826;BME280;11075;47.944;11.776;2022-07-17T07:42:28;95591.38;;;28.09;16.38
21826;BME280;11075;47.944;11.776;2022-07-17T07:44:55;95578.91;;;27.29;17.44
21826;BME280;11075;47.944;11.776;2022-07-17T07:47:22;95601.59;;;27.40;16.69
21826;BME280;11075;47.944;11.776;2022-07-17T07:49:49;95577.78;;;27.26;17.38
21826;BME280;11075;47.944;11.776;2022-07-17T07:52:17;95589.59;;;25.63;17.53
21826;BME280;11075;47.944;11.776;2022-07-17T07:54:43;95597.84;;;25.94;17.53
21826;BME280;11075;47.944;11.776;2022-07-17T07:57:10;95589.75;;;26.07;16.86
21826;BME280;11075;47.944;11.776;2022-07-17T07:59:37;95580.88;;;28.01;16.72
21826;BME280;11075;47.944;11.776;2022-07-17T08:02:05;95599.22;;;26.79;16.36
21826;BME280;11075;47.944;11.776;2022-07-17T08:04:32;95589.81;;;28.08;16.47
21826;BME280;11075;47.944;11.776;2022-07-17T08:06:59;95606.72;;;29.20;15.57
21826;BME280;11075;47.944;11.776;2022-07-17T08:09:26;95580.09;;;27.84;16.82
21826;BME280;11075;47.944;11.776;2022-07-17T08:11:53;95559.22;;;24.68;19.06
21826;BME280;11075;47.944;11.776;2022-07-17T08:14:20;95593.56;;;26.16;17.02
21826;BME280;11075;47.944;11.776;2022-07-17T08:16:47;95570.03;;;23.97;18.44
21826;BME280;11075;47.944;11.776;2022-07-17T08:19:14;95589.53;;;27.86;16.83
21826;BME280;11075;47.944;11.776;2022-07-17T08:21:41;95599.34;;;28.07;16.56
21826;BME280;11075;47.944;11.776;2022-07-17T08:24:08;95591.47;;;26.47;17.20
21826;BME280;11075;47.944;11.776;2022-07-17T08:26:35;95578.47;;;28.97;17.29
21826;BME280;11075;47.944;11.776;2022-07-17T08:29:02;95579.66;;;27.10;17.23
21826;BME280;11075;47.944;11.776;2022-07-17T08:31:29;95579.31;;;27.47;17.09
21826;BME280;11075;47.944;11.776;2022-07-17T08:33:56;95586.59;;;27.57;17.63
21826;BME280;11075;47.944;11.776;2022-07-17T08:36:23;95597.03;;;26.90;16.62
21826;BME280;11075;47.944;11.776;2022-07-17T08:38:50;95571.41;;;26.66;17.73
21826;BME280;11075;47.944;11.776;2022-07-17T08:41:17;95599.59;;;28.62;16.31
21826;BME280;11075;47.944;11.776;2022-07-17T08:43:48;95594.09;;;29.74;16.74
21826;BME280;11075;47.944;11.776;2022-07-17T08:46:16;95592.38;;;26.41;17.19
21826;BME280;11075;47.944;11.776;2022-07-17T08:48:45;95625.56;;;30.82;14.65
21826;BME280;11075;47.944;11.776;2022-07-17T08:51:15;95630.50;;;28.28;15.41
21826;BME280;11075;47.944;11.776;2022-07-17T08:53:43;95596.34;;;26.63;17.26
21826;BME280;11075;47.944;11.776;2022-07-17T08:56:11;95602.41;;;27.77;16.64
21826;BME280;11075;47.944;11.776;2022-07-17T08:58:38;95632.53;;;30.39;14.18
21826;BME280;11075;47.944;11.776;2022-07-17T09:01:05;95611.41;;;27.81;16.79
21826;BME280;11075;47.944;11.776;2022-07-17T09:03:33;95655.00;;;29.52;14.49
21826;BME280;11075;47.944;11.776;2022-07-17T09:06:21;95610.72;;;26.74;16.67
21826;BME280;11075;47.944;11.776;2022-07-17T09:08:48;95611.50;;;29.20;16.29
21826;BME280;11075;47.944;11.776;2022-07-17T09:11:28;95613.63;;;28.38;16.35
21826;BME280;11075;47.944;11.776;2022-07-17T09:13:55;95624.44;;;28.33;15.46
21826;BME280;11075;47.944;11.776;2022-07-17T09:16:23;95652.50;;;28.67;14.54
21826;BME280;11075;47.944;11.776;2022-07-17T09:18:52;95637.06;;;27.45;15.50
21826;BME280;11075;47.944;11.776;2022-07-17T09:21:26;95620.63;;;28.10;16.73
21826;BME280;11075;47.944;11.776;2022-07-17T09:24:05;95623.22;;;29.40;15.17
21826;BME280;11075;47.944;11.776;2022-07-17T09:26:35;95626.78;;;27.26;15.89
21826;BME280;11075;47.944;11.776;2022-07-17T09:29:04;95622.44;;;27.65;15.63
21826;BME280;11075;47.944;11.776;2022-07-17T09:31:32;95598.41;;;28.14;16.23
21826;BME280;11075;47.944;11.776;2022-07-17T09:34:00;95602.44;;;28.42;16.78
21826;BME280;11075;47.944;11.776;2022-07-17T09:36:27;95622.78;;;29.13;15.51
21826;BME280;11075;47.944;11.776;2022-07-17T09:38:56;95611.59;;;27.90;15.54
21826;BME280;11075;47.944;11.776;2022-07-17T09:41:25;95635.69;;;28.09;14.73
21826;BME280;11075;47.944;11.776;2022-07-17T09:43:55;95618.84;;;27.28;15.16
21826;BME280;11075;47.944;11.776;2022-07-17T09:46:29;95634.28;;;28.01;15.05
21826;BME280;11075;47.944;11.776;2022-07-17T09:49:02;95617.19;;;28.22;15.36
21826;BME280;11075;47.944;11.776;2022-07-17T09:51:31;95622.75;;;29.71;14.81
21826;BME280;11075;47.944;11.776;2022-07-17T09:54:02;95621.16;;;28.21;15.37
21826;BME280;11075;47.944;11.776;2022-07-17T09:56:31;95602.53;;;25.36;17.51
21826;BME280;11075;47.944;11.776;2022-07-17T09:59:03;95607.22;;;29.86;15.43
21826;BME280;11075;47.944;11.776;2022-07-17T10:01:33;95616.41;;;25.90;16.54
21826;BME280;11075;47.944;11.776;2022-07-17T10:04:02;95645.47;;;29.53;13.75
21826;BME280;11075;47.944;11.776;2022-07-17T10:06:30;95619.88;;;28.59;15.27
21826;BME280;11075;47.944;11.776;2022-07-17T10:08:59;95588.75;;;30.77;16.39
21826;BME280;11075;47.944;11.776;2022-07-17T10:11:29;95644.50;;;31.65;13.14
21826;BME280;11075;47.944;11.776;2022-07-17T10:14:02;95606.22;;;30.18;15.48
21826;BME280;11075;47.944;11.776;2022-07-17T10:16:32;95622.78;;;30.22;14.35
21826;BME280;11075;47.944;11.776;2022-07-17T10:19:00;95624.78;;;27.26;15.22
21826;BME280;11075;47.944;11.776;2022-07-17T10:21:31;95599.13;;;30.04;15.86
21826;BME280;11075;47.944;11.776;2022-07-17T10:26:41;95614.97;;;32.48;14.67
21826;BME280;11075;47.944;11.776;2022-07-17T10:29:36;95604.09;;;29.84;15.96
21826;BME280;11075;47.944;11.776;2022-07-17T10:32:17;95642.66;;;29.82;14.32
21826;BME280;11075;47.944;11.776;2022-07-17T10:35:04;95616.03;;;26.42;16.45
21826;BME280;11075;47.944;11.776;2022-07-17T10:40:05;95632.88;;;29.77;14.15
21826;BME280;11075;47.944;11.776;2022-07-17T10:42:44;95645.44;;;29.82;13.17
21826;BME280;11075;47.944;11.776;2022-07-17T10:45:17;95607.88;;;29.90;14.84
21826;BME280;11075;47.944;11.776;2022-07-17T10:50:22;95620.09;;;30.43;14.81
21826;BME280;11075;47.944;11.776;2022-07-17T10:53:05;95635.53;;;31.70;13.50
21826;BME280;11075;47.944;11.776;2022-07-17T10:55:35;95639.38;;;31.42;14.00
21826;BME280;11075;47.944;11.776;2022-07-17T10:58:03;95599.47;;;28.81;16.14
21826;BME280;11075;47.944;11.776;2022-07-17T11:00:31;95613.88;;;30.27;15.37
21826;BME280;11075;47.944;11.776;2022-07-17T11:03:11;95621.44;;;31.95;14.50
21826;BME280;11075;47.944;11.776;2022-07-17T11:05:39;95612.84;;;29.57;15.38
21826;BME280;11075;47.944;11.776;2022-07-17T11:08:06;95598.13;;;28.24;15.48
21826;BME280;11075;47.944;11.776;2022-07-17T11:10:36;95598.47;;;30.13;14.42
21826;BME280;11075;47.944;11.776;2022-07-17T11:13:13;95606.78;;;29.75;14.05
21826;BME280;11075;47.944;11.776;2022-07-17T11:15:45;95601.16;;;29.49;14.87
21826;BME280;11075;47.944;11.776;2022-07-17T11:18:18;95624.59;;;29.61;14.05
21826;BME280;11075;47.944;11.776;2022-07-17T11:20:57;95599.59;;;25.81;15.67
21826;BME280;11075;47.944;11.776;2022-07-17T11:23:28;95606.44;;;28.24;14.76
21826;BME280;11075;47.944;11.776;2022-07-17T11:28:38;95584.72;;;31.13;14.68
21826;BME280;11075;47.944;11.776;2022-07-17T11:31:34;95622.13;;;31.78;12.55
21826;BME280;11075;47.944;11.776;2022-07-17T11:34:04;95597.59;;;29.36;14.84
21826;BME280;11075;47.944;11.776;2022-07-17T11:36:43;95604.78;;;30.86;13.20
21826;BME280;11075;47.944;11.776;2022-07-17T11:39:15;95603.00;;;30.45;14.08
21826;BME280;11075;47.944;11.776;2022-07-17T11:41:48;95614.09;;;27.28;13.78
21826;BME280;11075;47.944;11.776;2022-07-17T11:44:19;95605.66;;;30.36;12.54
21826;BME280;11075;47.944;11.776;2022-07-17T11:46:50;95591.63;;;31.74;13.36
21826;BME280;11075;47.944;11.776;2022-07-17T11:49:29;95601.56;;;32.92;12.29
21826;BME280;11075;47.944;11.776;2022-07-17T11:52:07;95592.75;;;31.86;13.13
21826;BME280;11075;47.944;11.776;2022-07-17T11:57:12;95590.03;;;30.98;13.17
21826;BME280;11075;47.944;11.776;2022-07-17T11:59:39;95582.44;;;31.95;13.13
21826;BME280;11075;47.944;11.776;2022-07-17T12:02:07;95574.88;;;31.65;13.16
21826;BME280;11075;47.944;11.776;2022-07-17T12:04:35;95598.31;;;33.21;11.69
21826;BME280;11075;47.944;11.776;2022-07-17T12:07:03;95561.47;;;26.92;15.32
21826;BME280;11075;47.944;11.776;2022-07-17T12:09:32;95555.19;;;31.90;14.02
21826;BME280;11075;47.944;11.776;2022-07-17T12:12:01;95556.91;;;29.71;14.32
21826;BME280;11075;47.944;11.776;2022-07-17T12:14:28;95544.63;;;31.85;14.47
21826;BME280;11075;47.944;11.776;2022-07-17T12:16:57;95546.06;;;30.50;15.17
21826;BME280;11075;47.944;11.776;2022-07-17T12:19:29;95560.66;;;32.80;13.71
21826;BME280;11075;47.944;11.776;2022-07-17T12:22:01;95529.63;;;31.21;14.92
21826;BME280;11075;47.944;11.776;2022-07-17T12:24:35;95554.13;;;32.92;13.59
21826;BME280;11075;47.944;11.776;2022-07-17T12:27:05;95543.19;;;30.28;14.19
21826;BME280;11075;47.944;11.776;2022-07-17T12:29:32;95539.84;;;32.44;13.89
21826;BME280;11075;47.944;11.776;2022-07-17T12:32:04;95524.56;;;30.16;14.85
21826;BME280;11075;47.944;11.776;2022-07-17T12:34:33;95552.75;;;28.96;14.20
21826;BME280;11075;47.944;11.776;2022-07-17T12:37:00;95553.81;;;33.17;12.76
21826;BME280;11075;47.944;11.776;2022-07-17T12:39:27;95550.66;;;29.55;14.14
21826;BME280;11075;47.944;11.776;2022-07-17T12:41:55;95572.09;;;33.27;11.45
21826;BME280;11075;47.944;11.776;2022-07-17T12:44:22;95537.00;;;27.99;15.59
21826;BME280;11075;47.944;11.776;2022-07-17T12:46:49;95540.78;;;33.23;13.38
21826;BME280;11075;47.944;11.776;2022-07-17T12:49:16;95555.59;;;33.99;12.49
21826;BME280;11075;47.944;11.776;2022-07-17T12:51:43;95562.84;;;30.46;13.13
21826;BME280;11075;47.944;11.776;2022-07-17T12:54:09;95558.09;;;29.58;13.80
21826;BME280;11075;47.944;11.776;2022-07-17T12:56:36;95555.63;;;31.27;12.77
21826;BME280;11075;47.944;11.776;2022-07-17T12:59:03;95557.13;;;31.71;13.31
21826;BME280;11075;47.944;11.776;2022-07-17T13:01:30;95529.69;;;31.08;14.51
21826;BME280;11075;47.944;11.776;2022-07-17T13:03:57;95550.28;;;28.85;13.94
21826;BME280;11075;47.944;11.776;2022-07-17T13:06:25;95540.63;;;30.33;13.79
21826;BME280;11075;47.944;11.776;2022-07-17T13:08:53;95546.41;;;28.67;14.38
21826;BME280;11075;47.944;11.776;2022-07-17T13:11:20;95556.69;;;31.51;12.60